Terminal Aerodrome Forecast
Issued by NWS

Home | Current Version | Previous Version | Text Only | Print | Product List | Glossary On
Versions: 1 2 3 4 5 6 7 8 9 10 11 12 13 14 15 16
000
FTUS42 KMLB 200500
TAFISM
TAF
KISM 200528Z 2006/2106 00000KT P6SM FEW250
      TEMPO 2009/2012 4SM MIFG BR SCT002
     FM201400 12004KT P6SM SCT040 SCT250
     FM210000 VRB02KT P6SM FEW040 BKN250
      AMD NOT SKED TIL 201100=

USA.gov is the U.S. government's official web portal to all federal, state and local government web resources and services.